Time;durP1;ratioP1;P1;durP2;ratioP2;P2;SDS_P1;SDS_P2;PMS_P1;PMS_P2;Temp;Humidity;BMP_temperature;BMP_pressure;BME280_temperature;BME280_humidity;BME280_pressure;Samples;Min_cycle;Max_cycle;Signal;HPM_P1;HPM_P2
2023/03/25 00:01:57;;;;;;;11.63;5.80;;;7.50;96.60;;;;;;5050011;28;20473;-75
2023/03/25 00:04:25;;;;;;;12.45;5.47;;;7.50;96.20;;;;;;5046310;28;20033;-74
2023/03/25 00:06:53;;;;;;;10.25;5.43;;;7.50;96.30;;;;;;5041394;28;20033;-75
2023/03/25 00:09:19;;;;;;;8.85;5.22;;;7.50;96.20;;;;;;5050066;28;20470;-75
2023/03/25 00:11:44;;;;;;;9.85;5.28;;;7.50;96.50;;;;;;5046513;28;20044;-75
2023/03/25 00:14:11;;;;;;;11.38;5.38;;;7.50;96.60;;;;;;5046870;28;20052;-75
2023/03/25 00:16:37;;;;;;;13.82;5.93;;;7.50;96.30;;;;;;5048363;28;20025;-75
2023/03/25 00:19:02;;;;;;;18.15;5.90;;;7.60;96.20;;;;;;5049302;28;20417;-75
2023/03/25 00:21:28;;;;;;;12.32;5.22;;;7.60;96.00;;;;;;5040646;28;20022;-74
2023/03/25 00:23:54;;;;;;;15.60;5.50;;;7.70;96.20;;;;;;5049508;28;20051;-76
2023/03/25 00:26:19;;;;;;;12.90;5.68;;;7.80;95.90;;;;;;5046113;28;20017;-76
2023/03/25 00:28:45;;;;;;;11.95;5.18;;;7.80;95.70;;;;;;5051275;28;20029;-75
2023/03/25 00:31:12;;;;;;;11.50;5.53;;;7.80;95.50;;;;;;5050047;28;20470;-74
2023/03/25 00:33:40;;;;;;;10.20;5.13;;;7.80;95.50;;;;;;5049389;28;20037;-75
2023/03/25 00:36:06;;;;;;;10.93;4.93;;;7.80;95.60;;;;;;5046506;28;20025;-75
2023/03/25 00:38:34;;;;;;;11.85;5.03;;;7.90;95.30;;;;;;5050166;28;20043;-75
2023/03/25 00:41:16;;;;;;;7.40;4.32;;;8.00;95.20;;;;;;5049820;28;20091;-76
2023/03/25 00:43:42;;;;;;;8.38;3.95;;;8.00;95.10;;;;;;5050365;28;20056;-75
2023/03/25 00:46:08;;;;;;;11.32;4.35;;;8.10;95.10;;;;;;5048822;28;20032;-75
2023/03/25 00:48:34;;;;;;;12.40;4.15;;;8.10;94.90;;;;;;5048600;28;20028;-76
2023/03/25 00:51:06;;;;;;;11.13;4.72;;;8.10;94.80;;;;;;5044871;28;20045;-73
2023/03/25 00:53:32;;;;;;;8.00;4.30;;;8.10;94.70;;;;;;5049332;28;20420;-75
2023/03/25 00:55:57;;;;;;;10.18;4.38;;;8.10;94.70;;;;;;5045164;28;20388;-75
2023/03/25 00:58:23;;;;;;;9.88;4.75;;;8.10;94.50;;;;;;5023412;28;20448;-76
2023/03/25 01:00:48;;;;;;;9.13;4.15;;;8.10;94.70;;;;;;5050293;28;20369;-76
2023/03/25 01:03:14;;;;;;;12.35;4.07;;;8.10;94.30;;;;;;5048806;28;20037;-73
2023/03/25 01:05:40;;;;;;;12.73;3.95;;;8.20;93.90;;;;;;5044853;28;20036;-76
2023/03/25 01:08:06;;;;;;;11.07;3.88;;;8.10;94.00;;;;;;5046487;28;20571;-74
2023/03/25 01:10:34;;;;;;;7.82;4.05;;;8.10;93.90;;;;;;5043801;28;20074;-75
2023/03/25 01:13:00;;;;;;;7.93;3.88;;;8.10;93.80;;;;;;5026107;28;20041;-76
2023/03/25 01:15:25;;;;;;;9.07;3.50;;;8.10;93.90;;;;;;5043494;28;20037;-75
2023/03/25 01:17:51;;;;;;;11.30;3.45;;;8.10;93.90;;;;;;5043978;28;20116;-74
2023/03/25 01:20:16;;;;;;;9.20;3.63;;;8.30;93.40;;;;;;5047399;28;20138;-75
2023/03/25 01:22:42;;;;;;;8.70;3.42;;;8.30;92.90;;;;;;5043056;28;20041;-75
2023/03/25 01:25:08;;;;;;;9.63;3.22;;;8.40;92.90;;;;;;5047118;28;20025;-74
2023/03/25 01:27:33;;;;;;;8.55;3.45;;;8.30;93.20;;;;;;5049103;28;20067;-75
2023/03/25 01:29:59;;;;;;;10.48;3.53;;;8.30;93.10;;;;;;5026652;28;20044;-74
2023/03/25 01:32:24;;;;;;;9.55;3.72;;;8.30;92.90;;;;;;5042055;28;20090;-75
2023/03/25 01:34:50;;;;;;;9.80;3.63;;;8.40;92.70;;;;;;5046156;28;20040;-76
2023/03/25 01:37:17;;;;;;;6.55;3.15;;;8.50;92.10;;;;;;5043727;28;20029;-75
2023/03/25 01:39:42;;;;;;;5.75;3.28;;;8.50;92.10;;;;;;5045692;28;20035;-75
2023/03/25 01:42:10;;;;;;;10.60;3.60;;;8.40;92.10;;;;;;5039757;28;20040;-75
2023/03/25 01:44:39;;;;;;;8.20;3.42;;;8.40;92.50;;;;;;5044740;28;20539;-75
2023/03/25 01:47:07;;;;;;;11.25;3.42;;;8.40;92.10;;;;;;5047547;28;20473;-74
2023/03/25 01:49:42;;;;;;;8.07;3.25;;;8.40;92.10;;;;;;5047637;28;20449;-75
2023/03/25 01:52:12;;;;;;;8.45;4.00;;;8.30;92.20;;;;;;5046805;28;20454;-75
2023/03/25 01:54:39;;;;;;;6.60;3.28;;;8.20;92.60;;;;;;5035679;28;20040;-75
2023/03/25 01:57:07;;;;;;;8.93;3.95;;;8.20;92.90;;;;;;5049570;28;20029;-75
2023/03/25 01:59:32;;;;;;;9.75;3.90;;;8.30;92.60;;;;;;5047512;28;20477;-75
2023/03/25 02:02:01;;;;;;;10.77;3.90;;;8.40;92.20;;;;;;5050918;28;20036;-75
2023/03/25 02:04:44;;;;;;;8.07;3.47;;;8.40;92.10;;;;;;5048575;28;20064;-75
2023/03/25 02:07:10;;;;;;;11.25;3.50;;;8.40;92.10;;;;;;5040798;28;20025;-75
2023/03/25 02:09:37;;;;;;;7.55;3.20;;;8.30;92.20;;;;;;5029142;28;20041;-75
2023/03/25 02:12:03;;;;;;;10.15;3.90;;;8.30;92.10;;;;;;5051353;28;20037;-73
2023/03/25 02:14:32;;;;;;;8.10;3.50;;;8.30;92.20;;;;;;5048785;28;20485;-75
2023/03/25 02:17:32;;;;;;;8.73;3.35;;;8.30;92.20;;;;;;5045012;28;20029;-75
2023/03/25 02:20:31;;;;;;;7.03;3.13;;;8.40;92.00;;;;;;5041852;28;20053;-75
2023/03/25 02:23:15;;;;;;;10.15;3.22;;;8.40;91.80;;;;;;5046267;28;20037;-75
2023/03/25 02:25:53;;;;;;;9.35;3.40;;;8.40;91.90;;;;;;5050933;28;20033;-75
2023/03/25 02:28:38;;;;;;;8.95;3.65;;;8.40;91.50;;;;;;5049507;28;20480;-75
2023/03/25 02:31:41;;;;;;;7.20;2.67;;;8.50;91.40;;;;;;5047308;28;20099;-75
2023/03/25 02:34:28;;;;;;;6.75;3.03;;;8.50;91.30;;;;;;5048735;28;20037;-73
2023/03/25 02:37:11;;;;;;;6.70;2.90;;;8.40;91.60;;;;;;5041662;28;20120;-75
2023/03/25 02:39:53;;;;;;;6.75;3.13;;;8.40;91.60;;;;;;5039382;28;20033;-75
2023/03/25 02:42:43;;;;;;;8.32;3.20;;;8.40;91.50;;;;;;5050726;28;20029;-75
2023/03/25 02:45:16;;;;;;;5.20;2.67;;;8.50;91.30;;;;;;5043706;28;20485;-74
2023/03/25 02:47:52;;;;;;;8.23;2.80;;;8.40;91.20;;;;;;5044983;28;20393;-75
2023/03/25 02:50:33;;;;;;;7.15;2.95;;;8.40;91.50;;;;;;5049439;28;20017;-75
2023/03/25 02:53:03;;;;;;;5.95;2.30;;;8.40;91.30;;;;;;5045468;28;20493;-75
2023/03/25 02:55:30;;;;;;;7.23;2.90;;;8.50;91.40;;;;;;5050024;28;20044;-75
2023/03/25 02:57:58;;;;;;;4.85;2.45;;;8.40;91.00;;;;;;5046733;28;20296;-75
2023/03/25 03:00:27;;;;;;;6.88;2.53;;;8.40;91.30;;;;;;5044195;28;20029;-75
2023/03/25 03:02:58;;;;;;;7.78;2.58;;;8.40;91.40;;;;;;5032063;28;20041;-75
2023/03/25 03:05:34;;;;;;;7.72;2.80;;;8.30;91.60;;;;;;5045438;28;20064;-76
2023/03/25 03:08:08;;;;;;;7.50;3.33;;;8.30;91.60;;;;;;5044284;28;20025;-75
2023/03/25 03:11:05;;;;;;;7.22;3.03;;;8.30;91.80;;;;;;5046835;28;20450;-75
2023/03/25 03:13:40;;;;;;;7.22;2.90;;;8.30;91.70;;;;;;5048600;28;20040;-74
2023/03/25 03:16:12;;;;;;;6.13;3.25;;;8.30;91.60;;;;;;5044631;28;20477;-72
2023/03/25 03:27:32;;;;;;;7.95;3.05;;;8.30;91.60;;;;;;5465642;23;20522;-79
2023/03/25 03:30:38;;;;;;;7.53;3.05;;;8.30;91.50;;;;;;5034131;28;20094;-78
2023/03/25 03:33:30;;;;;;;9.05;3.13;;;8.30;91.70;;;;;;5035775;28;20401;-80
2023/03/25 03:36:12;;;;;;;8.25;3.17;;;8.30;91.30;;;;;;5037698;28;20075;-79
2023/03/25 03:38:42;;;;;;;4.97;2.80;;;8.30;91.40;;;;;;5042109;28;20029;-80
2023/03/25 03:41:12;;;;;;;8.23;3.03;;;8.30;91.50;;;;;;5032892;28;20113;-80
2023/03/25 03:43:51;;;;;;;7.32;2.80;;;8.30;91.50;;;;;;5039766;28;20029;-78
2023/03/25 03:46:26;;;;;;;8.35;3.05;;;8.20;91.80;;;;;;5043848;28;20113;-79
2023/03/25 03:48:56;;;;;;;7.65;2.65;;;8.30;91.20;;;;;;5042438;28;20486;-80
2023/03/25 03:51:33;;;;;;;5.85;2.95;;;8.30;91.30;;;;;;5039035;28;20049;-80
2023/03/25 03:54:12;;;;;;;6.68;2.63;;;8.30;91.10;;;;;;5042456;28;20083;-80
2023/03/25 03:56:45;;;;;;;8.75;2.88;;;8.30;91.20;;;;;;5051271;28;20048;-79
2023/03/25 03:59:22;;;;;;;5.18;2.40;;;8.30;91.20;;;;;;5024840;28;20150;-80
2023/03/25 04:01:54;;;;;;;7.07;2.95;;;8.40;90.80;;;;;;5039521;28;20029;-80
2023/03/25 04:04:25;;;;;;;5.00;2.60;;;8.30;90.90;;;;;;5026056;28;20032;-80
2023/03/25 04:07:15;;;;;;;4.38;2.13;;;8.30;90.70;;;;;;5042199;28;20109;-80
2023/03/25 04:10:13;;;;;;;6.00;1.98;;;8.30;90.60;;;;;;5046319;28;20083;-80
2023/03/25 04:12:42;;;;;;;6.53;2.40;;;8.30;90.60;;;;;;5045510;28;20468;-80
2023/03/25 04:15:08;;;;;;;5.80;1.95;;;8.30;90.90;;;;;;5020400;28;20168;-80
2023/03/25 04:17:33;;;;;;;5.82;2.05;;;8.30;90.80;;;;;;5039574;28;20108;-80
2023/03/25 04:20:00;;;;;;;8.57;2.00;;;8.20;91.20;;;;;;5041928;28;20262;-80
2023/03/25 04:22:26;;;;;;;7.05;2.53;;;8.30;91.00;;;;;;5042639;28;20096;-80
2023/03/25 04:24:54;;;;;;;8.85;2.22;;;8.30;91.10;;;;;;5028174;28;20048;-80
2023/03/25 04:27:21;;;;;;;7.47;2.50;;;8.30;90.80;;;;;;5027658;28;20131;-79
2023/03/25 04:29:48;;;;;;;6.22;1.95;;;8.30;90.60;;;;;;5043606;28;20302;-81
2023/03/25 04:32:15;;;;;;;4.65;1.92;;;8.30;90.50;;;;;;5035852;28;20068;-80
2023/03/25 04:34:40;;;;;;;3.47;1.83;;;8.30;90.30;;;;;;5042327;28;20041;-80
2023/03/25 04:37:06;;;;;;;6.28;1.65;;;8.40;90.20;;;;;;5022237;28;20032;-80
2023/03/25 04:39:31;;;;;;;5.50;1.92;;;8.40;89.90;;;;;;5023504;28;20428;-79
2023/03/25 04:42:02;;;;;;;6.07;1.80;;;8.40;89.60;;;;;;5040972;28;20037;-79
2023/03/25 04:44:28;;;;;;;6.20;1.98;;;8.40;90.00;;;;;;5044956;28;20033;-80
2023/03/25 04:46:55;;;;;;;4.57;1.90;;;8.40;90.00;;;;;;5041668;28;20041;-79
2023/03/25 04:49:21;;;;;;;4.63;1.73;;;8.30;90.10;;;;;;5037321;28;20033;-80
2023/03/25 04:51:51;;;;;;;4.88;2.08;;;8.40;89.70;;;;;;5036471;28;20055;-80
2023/03/25 04:54:20;;;;;;;7.25;2.03;;;8.50;89.20;;;;;;5040630;28;20029;-80
2023/03/25 04:56:48;;;;;;;9.68;2.28;;;8.40;89.60;;;;;;5045810;28;20123;-80
2023/03/25 04:59:14;;;;;;;5.22;1.75;;;8.40;90.60;;;;;;5028466;28;20106;-79
2023/03/25 05:01:41;;;;;;;9.40;2.08;;;8.20;91.90;;;;;;5033899;28;20029;-79
2023/03/25 05:04:11;;;;;;;6.53;1.95;;;8.10;92.80;;;;;;5025224;28;20045;-80
2023/03/25 05:06:42;;;;;;;7.20;1.80;;;7.90;93.60;;;;;;5036591;28;20477;-79
2023/03/25 05:09:09;;;;;;;;;;;7.90;94.10;;;;;;5046973;28;20627;-78
2023/03/25 05:11:38;;;;;;;5.90;2.30;;;7.80;94.50;;;;;;5042313;28;19931;-78
2023/03/25 05:14:04;;;;;;;7.65;2.38;;;7.80;94.70;;;;;;5030867;28;20070;-79
2023/03/25 05:16:29;;;;;;;6.55;2.40;;;7.80;94.70;;;;;;5038971;28;20185;-78
2023/03/25 05:18:55;;;;;;;6.78;2.45;;;7.70;95.00;;;;;;5022174;28;20441;-78
2023/03/25 05:21:20;;;;;;;7.60;2.55;;;7.70;95.50;;;;;;5022892;28;20036;-79
2023/03/25 05:23:46;;;;;;;10.20;2.67;;;7.60;95.80;;;;;;5045178;28;20029;-77
2023/03/25 05:26:12;;;;;;;7.32;2.67;;;7.60;96.00;;;;;;5023524;28;20484;-77
2023/03/25 05:28:38;;;;;;;9.43;3.13;;;7.60;96.20;;;;;;5028689;28;20052;-77
2023/03/25 05:31:07;;;;;;;8.05;2.63;;;7.50;96.50;;;;;;5039355;28;20032;-80
2023/03/25 05:33:35;;;;;;;9.80;3.08;;;7.50;96.60;;;;;;5045904;28;20037;-76
2023/03/25 05:36:02;;;;;;;11.10;3.33;;;7.50;96.50;;;;;;5041567;28;20061;-77
2023/03/25 05:38:28;;;;;;;8.88;3.30;;;7.50;96.70;;;;;;5011334;28;20480;-78
2023/03/25 05:40:53;;;;;;;9.73;3.05;;;7.50;96.60;;;;;;5045247;28;20223;-78
2023/03/25 05:43:22;;;;;;;7.95;3.00;;;7.50;96.60;;;;;;5049448;28;20086;-77
2023/03/25 05:45:48;;;;;;;10.35;3.17;;;7.50;96.50;;;;;;5047979;28;20127;-77
2023/03/25 05:48:14;;;;;;;11.20;3.08;;;7.50;96.50;;;;;;5049241;28;20119;-78
2023/03/25 05:50:42;;;;;;;9.02;2.83;;;7.60;96.20;;;;;;5042265;28;20040;-79
2023/03/25 05:53:11;;;;;;;9.52;3.13;;;7.60;96.10;;;;;;5027558;28;20529;-78
2023/03/25 05:55:37;;;;;;;10.93;3.00;;;7.60;96.00;;;;;;5043944;28;20052;-78
2023/03/25 05:58:03;;;;;;;11.35;2.92;;;7.60;95.90;;;;;;5026889;28;20441;-78
2023/03/25 06:00:29;;;;;;;10.48;3.05;;;7.70;95.70;;;;;;5048466;28;20052;-78
2023/03/25 06:02:55;;;;;;;10.85;3.15;;;7.70;95.80;;;;;;5029763;28;20368;-80
2023/03/25 06:05:22;;;;;;;10.10;3.38;;;7.70;95.80;;;;;;5044539;28;20040;-78
2023/03/25 06:07:48;;;;;;;11.95;2.92;;;7.70;96.00;;;;;;5039911;28;20028;-78
2023/03/25 06:10:18;;;;;;;8.98;2.90;;;7.70;96.00;;;;;;5048559;28;20068;-77
2023/03/25 06:12:45;;;;;;;9.52;2.50;;;7.70;96.00;;;;;;5042597;28;20090;-80
2023/03/25 06:15:12;;;;;;;11.98;3.17;;;7.70;95.90;;;;;;5044458;28;20434;-79
2023/03/25 06:17:39;;;;;;;9.85;2.95;;;7.60;96.10;;;;;;5033796;28;20087;-77
2023/03/25 06:20:11;;;;;;;8.43;2.78;;;7.60;96.40;;;;;;5040942;28;20037;-78
2023/03/25 06:22:44;;;;;;;12.00;3.00;;;7.60;96.40;;;;;;5045317;28;20112;-78
2023/03/25 06:25:12;;;;;;;9.77;2.83;;;7.60;96.30;;;;;;5048061;28;20511;-78
2023/03/25 06:27:40;;;;;;;11.70;3.17;;;7.60;96.20;;;;;;5044155;28;20049;-77
2023/03/25 06:30:09;;;;;;;11.60;3.03;;;7.60;96.20;;;;;;5038934;28;20129;-78
2023/03/25 06:32:35;;;;;;;11.68;2.78;;;7.70;96.30;;;;;;5040238;28;20025;-82
2023/03/25 06:35:01;;;;;;;8.52;2.95;;;7.60;96.00;;;;;;5038135;28;20376;-82
2023/03/25 06:37:27;;;;;;;10.05;3.05;;;7.70;95.50;;;;;;5022284;28;20182;-82
2023/03/25 06:39:55;;;;;;;13.25;2.55;;;7.80;95.10;;;;;;5039686;28;20155;-82
2023/03/25 06:42:22;;;;;;;8.05;2.45;;;7.80;95.20;;;;;;5041042;28;20082;-83
2023/03/25 06:44:48;;;;;;;9.43;3.00;;;7.80;94.90;;;;;;5023655;28;20043;-83
2023/03/25 06:47:14;;;;;;;10.20;2.63;;;7.80;94.70;;;;;;5042791;28;20034;-83
2023/03/25 06:49:40;;;;;;;10.02;3.05;;;7.90;94.00;;;;;;5025254;28;20104;-83
2023/03/25 06:52:05;;;;;;;9.38;2.45;;;7.90;94.10;;;;;;5039524;28;20143;-82
2023/03/25 06:54:31;;;;;;;8.13;2.45;;;8.00;93.80;;;;;;5038875;28;20092;-83
2023/03/25 06:56:56;;;;;;;11.45;2.47;;;8.00;93.90;;;;;;5045238;28;20041;-83
2023/03/25 06:59:22;;;;;;;9.48;2.38;;;8.00;94.10;;;;;;5044659;28;20081;-84
2023/03/25 07:01:47;;;;;;;9.43;2.35;;;8.00;94.40;;;;;;5046850;28;20044;-83
2023/03/25 07:04:13;;;;;;;11.52;2.85;;;8.00;94.00;;;;;;5043751;28;20453;-82
2023/03/25 07:06:39;;;;;;;9.02;2.63;;;7.90;94.50;;;;;;5037607;28;20446;-83
2023/03/25 07:09:04;;;;;;;10.55;2.10;;;7.90;94.20;;;;;;5045428;28;20124;-82
2023/03/25 07:11:31;;;;;;;9.50;2.10;;;7.90;94.20;;;;;;5042447;28;20120;-83
2023/03/25 07:13:57;;;;;;;7.60;1.75;;;7.90;94.20;;;;;;5037789;28;20278;-83
2023/03/25 07:16:23;;;;;;;9.93;2.42;;;7.90;94.40;;;;;;5039186;28;20140;-81
2023/03/25 07:18:50;;;;;;;6.20;1.90;;;7.90;94.30;;;;;;5044232;28;20127;-83
2023/03/25 07:21:16;;;;;;;7.07;1.88;;;7.90;94.50;;;;;;5042557;28;20029;-83
2023/03/25 07:23:41;;;;;;;8.93;2.00;;;7.90;94.50;;;;;;5039369;28;20041;-83
2023/03/25 07:26:07;;;;;;;9.85;2.38;;;7.90;94.70;;;;;;5028486;28;20150;-84
2023/03/25 07:28:32;;;;;;;10.63;2.15;;;7.90;95.10;;;;;;5042661;28;20029;-83
2023/03/25 07:30:58;;;;;;;8.90;2.30;;;8.00;95.20;;;;;;5043924;28;20041;-83
2023/03/25 07:33:23;;;;;;;7.82;1.90;;;7.90;95.20;;;;;;5024497;28;20049;-82
2023/03/25 07:35:49;;;;;;;10.60;2.15;;;7.90;95.30;;;;;;5039029;28;20105;-83
2023/03/25 07:38:15;;;;;;;7.65;1.65;;;8.10;95.30;;;;;;5026628;28;20056;-82
2023/03/25 07:40:40;;;;;;;7.85;2.30;;;8.00;95.20;;;;;;5041022;28;20362;-82
2023/03/25 07:43:06;;;;;;;5.90;1.75;;;8.10;95.10;;;;;;5044668;28;20025;-83
2023/03/25 07:45:31;;;;;;;6.57;2.03;;;8.10;94.70;;;;;;5043776;28;20137;-83
2023/03/25 07:48:00;;;;;;;5.93;1.80;;;8.20;94.40;;;;;;5045411;28;20512;-83
2023/03/25 07:50:25;;;;;;;6.50;1.73;;;8.30;94.10;;;;;;5044990;28;20048;-83
2023/03/25 07:52:50;;;;;;;7.72;2.20;;;8.30;93.80;;;;;;5024966;28;20113;-84
2023/03/25 07:55:16;;;;;;;5.97;2.28;;;8.30;93.80;;;;;;5025372;28;20033;-83
2023/03/25 07:57:42;;;;;;;5.50;1.77;;;8.30;93.70;;;;;;5027991;28;20052;-83
2023/03/25 08:00:09;;;;;;;6.85;1.58;;;8.30;93.60;;;;;;5040445;28;20127;-84
2023/03/25 08:02:35;;;;;;;8.75;2.20;;;8.40;93.10;;;;;;5046641;28;20222;-83
2023/03/25 08:05:01;;;;;;;5.63;1.40;;;8.50;92.80;;;;;;5041906;28;20127;-83
2023/03/25 08:07:27;;;;;;;9.65;2.15;;;8.70;92.10;;;;;;5033045;28;20499;-84
2023/03/25 08:09:53;;;;;;;6.05;1.90;;;8.80;91.20;;;;;;5039835;28;20037;-83
2023/03/25 08:12:18;;;;;;;6.90;1.92;;;9.00;91.30;;;;;;5040645;28;20109;-83
2023/03/25 08:14:44;;;;;;;5.70;1.90;;;9.20;91.00;;;;;;5025193;28;20108;-83
2023/03/25 08:17:09;;;;;;;7.18;1.80;;;9.30;90.20;;;;;;5044321;28;20361;-84
2023/03/25 08:19:35;;;;;;;6.38;1.85;;;9.10;89.90;;;;;;5042281;28;20044;-85
2023/03/25 08:22:01;;;;;;;6.70;1.60;;;9.10;90.30;;;;;;5036653;28;20059;-83
2023/03/25 08:24:28;;;;;;;5.82;1.80;;;9.10;89.90;;;;;;5025686;28;20030;-83
2023/03/25 08:26:54;;;;;;;6.03;1.85;;;9.10;90.00;;;;;;5020699;28;20072;-84
2023/03/25 08:29:20;;;;;;;6.85;1.80;;;9.10;89.80;;;;;;5041054;28;20029;-84
2023/03/25 08:31:50;;;;;;;5.35;1.60;;;9.00;88.80;;;;;;5035269;28;20025;-83
2023/03/25 08:34:17;;;;;;;5.85;1.70;;;9.00;89.40;;;;;;5024002;28;20098;-84
2023/03/25 08:36:42;;;;;;;7.18;1.52;;;8.90;89.50;;;;;;5042384;28;20468;-85
2023/03/25 08:39:10;;;;;;;4.47;1.80;;;8.90;89.90;;;;;;5042325;28;20477;-84
2023/03/25 08:41:39;;;;;;;5.93;1.58;;;8.70;90.70;;;;;;5038807;28;20335;-84
2023/03/25 08:44:05;;;;;;;4.10;1.52;;;8.80;91.10;;;;;;5042433;28;20086;-84
2023/03/25 08:46:31;;;;;;;5.22;1.60;;;8.90;89.90;;;;;;5027388;28;20186;-83
2023/03/25 08:48:56;;;;;;;7.88;1.70;;;8.90;90.40;;;;;;5040150;28;20128;-83
2023/03/25 08:51:22;;;;;;;6.00;1.50;;;9.10;89.60;;;;;;5044137;28;20032;-80
2023/03/25 08:53:47;;;;;;;5.93;1.50;;;9.20;90.30;;;;;;5037773;28;20048;-83
2023/03/25 08:56:13;;;;;;;4.47;1.58;;;9.10;91.00;;;;;;5034963;28;20431;-82
2023/03/25 08:58:39;;;;;;;3.53;1.20;;;9.10;91.30;;;;;;5037857;28;20025;-85
2023/03/25 09:01:05;;;;;;;8.00;1.65;;;8.90;91.40;;;;;;5036151;28;20021;-81
2023/03/25 09:03:32;;;;;;;4.60;1.30;;;8.80;92.40;;;;;;5005846;28;20048;-82
2023/03/25 09:05:57;;;;;;;2.00;0.90;;;8.40;91.90;;;;;;5017086;28;20436;-79
2023/03/25 09:08:23;;;;;;;6.10;1.10;;;8.10;92.40;;;;;;5034537;28;20033;-82
2023/03/25 09:10:49;;;;;;;2.67;0.55;;;7.80;93.30;;;;;;5042659;28;20030;-84
2023/03/25 09:13:14;;;;;;;3.35;0.70;;;7.50;93.20;;;;;;5028571;28;20041;-81
2023/03/25 09:15:40;;;;;;;4.32;0.60;;;7.40;93.40;;;;;;5034307;28;20070;-82
2023/03/25 09:18:05;;;;;;;3.28;0.80;;;7.30;93.80;;;;;;5018895;28;20024;-82
2023/03/25 09:20:32;;;;;;;4.43;0.77;;;7.10;94.10;;;;;;5033141;28;20037;-83
2023/03/25 09:22:57;;;;;;;5.43;1.00;;;7.10;94.50;;;;;;5025235;28;20043;-83
2023/03/25 09:25:23;;;;;;;4.28;0.77;;;7.00;94.50;;;;;;5027963;28;20119;-84
2023/03/25 09:27:48;;;;;;;5.03;0.80;;;7.00;95.00;;;;;;5043934;28;20049;-84
2023/03/25 09:30:14;;;;;;;3.45;0.77;;;6.90;95.50;;;;;;5024252;28;20394;-84
2023/03/25 09:32:40;;;;;;;2.63;0.90;;;6.90;95.90;;;;;;5028922;28;20040;-84
2023/03/25 09:35:06;;;;;;;2.05;0.70;;;7.00;96.20;;;;;;5033667;28;20104;-77
2023/03/25 09:37:32;;;;;;;2.75;1.08;;;7.00;96.10;;;;;;5039198;28;20152;-77
2023/03/25 09:39:58;;;;;;;3.67;0.75;;;7.10;96.20;;;;;;5025340;28;20091;-77
2023/03/25 09:42:52;;;;;;;3.78;1.08;;;7.10;96.20;;;;;;5043849;28;20094;-78
2023/03/25 09:45:38;;;;;;;3.67;0.90;;;7.10;96.00;;;;;;5039175;28;20033;-78
2023/03/25 09:48:26;;;;;;;5.40;1.27;;;7.30;95.80;;;;;;5036038;28;20076;-77
2023/03/25 09:50:51;;;;;;;3.20;1.23;;;7.40;95.50;;;;;;5040304;28;20695;-86
2023/03/25 09:53:39;;;;;;;2.25;0.95;;;7.40;95.00;;;;;;5038063;28;20025;-86
2023/03/25 09:56:11;;;;;;;10.18;1.25;;;7.90;95.30;;;;;;5042851;28;20033;-82
2023/03/25 09:58:46;;;;;;;3.00;0.98;;;8.30;94.60;;;;;;5035545;28;20025;-85
2023/03/25 10:01:20;;;;;;;3.05;1.00;;;8.50;93.30;;;;;;5043894;28;20025;-84
2023/03/25 10:04:12;;;;;;;6.43;1.23;;;8.60;91.80;;;;;;5036011;28;20059;-84
2023/03/25 10:06:56;;;;;;;6.82;1.15;;;9.10;92.70;;;;;;5043399;28;20112;-85
2023/03/25 10:09:37;;;;;;;4.05;1.00;;;9.10;90.90;;;;;;5045856;28;20067;-84
2023/03/25 10:12:42;;;;;;;6.43;0.95;;;9.00;91.40;;;;;;5043871;28;20115;-78
2023/03/25 10:15:28;;;;;;;5.85;0.90;;;8.80;92.00;;;;;;5042313;28;20581;-79
2023/03/25 10:18:40;;;;;;;6.15;1.00;;;8.60;91.20;;;;;;5037792;28;20037;-78
2023/03/25 10:21:38;;;;;;;5.63;1.08;;;8.60;91.80;;;;;;5012382;28;20133;-78
2023/03/25 10:24:09;;;;;;;6.55;1.30;;;8.70;91.90;;;;;;5012896;28;20110;-78
2023/03/25 10:26:53;;;;;;;4.80;1.30;;;8.80;91.50;;;;;;5047450;28;20133;-83
2023/03/25 10:29:24;;;;;;;6.13;1.30;;;9.00;91.30;;;;;;5015635;28;20495;-82
2023/03/25 10:31:52;;;;;;;5.22;1.40;;;9.10;90.80;;;;;;5039991;28;20049;-79
2023/03/25 10:34:22;;;;;;;5.28;1.45;;;9.10;90.10;;;;;;5028578;28;20140;-80
2023/03/25 10:36:56;;;;;;;4.78;1.10;;;9.00;89.20;;;;;;5036611;28;20443;-83
2023/03/25 10:39:24;;;;;;;8.85;1.25;;;9.20;90.60;;;;;;5045027;28;20025;-81
2023/03/25 10:42:03;;;;;;;6.88;1.52;;;9.20;90.30;;;;;;5045331;28;20393;-81
2023/03/25 10:44:29;;;;;;;6.55;1.27;;;9.30;90.70;;;;;;5022685;28;20037;-78
2023/03/25 10:47:11;;;;;;;5.68;1.20;;;9.20;90.60;;;;;;5035572;28;20044;-78
2023/03/25 10:49:40;;;;;;;7.30;1.50;;;8.90;90.60;;;;;;5022195;28;20071;-78
2023/03/25 10:52:06;;;;;;;7.03;2.58;;;8.80;91.30;;;;;;5043208;28;20090;-77
2023/03/25 10:54:35;;;;;;;13.48;3.40;;;8.60;91.90;;;;;;5042456;28;20036;-77
2023/03/25 10:57:04;;;;;;;10.07;2.70;;;8.40;92.50;;;;;;5023114;28;20139;-83
2023/03/25 10:59:44;;;;;;;14.52;4.05;;;8.30;93.60;;;;;;5030645;28;20059;-84
2023/03/25 11:02:24;;;;;;;10.30;2.80;;;8.20;93.80;;;;;;5026580;28;20165;-84
2023/03/25 11:04:57;;;;;;;9.00;2.60;;;8.10;94.00;;;;;;5044141;28;20414;-84
2023/03/25 11:07:34;;;;;;;6.90;1.65;;;8.10;94.70;;;;;;5034638;28;20080;-86
2023/03/25 11:10:12;;;;;;;6.45;2.22;;;8.10;95.30;;;;;;5025870;28;20436;-87
2023/03/25 11:12:44;;;;;;;7.68;1.90;;;8.10;95.10;;;;;;5025387;28;20040;-87
2023/03/25 11:15:16;;;;;;;12.80;2.38;;;8.00;95.40;;;;;;5045508;28;20361;-82
2023/03/25 11:17:44;;;;;;;6.80;1.35;;;8.00;96.20;;;;;;5026804;28;20066;-81
2023/03/25 11:20:19;;;;;;;3.83;0.75;;;7.20;95.50;;;;;;5043351;28;20473;-83
2023/03/25 11:22:49;;;;;;;2.70;0.77;;;6.40;96.70;;;;;;5023897;28;20033;-84
2023/03/25 11:25:20;;;;;;;2.60;0.77;;;6.30;97.50;;;;;;5039952;28;20091;-84
2023/03/25 11:27:50;;;;;;;4.50;1.25;;;6.30;97.50;;;;;;5044911;28;20048;-86
2023/03/25 11:30:19;;;;;;;3.53;0.93;;;6.50;97.70;;;;;;5041099;28;20380;-86
2023/03/25 11:33:05;;;;;;;3.15;1.20;;;6.90;97.80;;;;;;5042648;28;20081;-86
2023/03/25 11:35:37;;;;;;;4.43;1.15;;;7.30;97.90;;;;;;5044490;28;20036;-85
2023/03/25 11:38:14;;;;;;;3.97;1.23;;;7.70;97.90;;;;;;5036115;28;20029;-81
2023/03/25 11:40:53;;;;;;;4.47;1.70;;;8.00;97.30;;;;;;5015955;28;20044;-81
2023/03/25 11:43:22;;;;;;;8.48;1.90;;;8.30;96.90;;;;;;5044097;28;20040;-83
2023/03/25 11:45:48;;;;;;;5.60;1.80;;;8.60;97.10;;;;;;5038411;28;20063;-84
2023/03/25 11:48:20;;;;;;;8.52;1.73;;;9.00;96.90;;;;;;5042020;28;20029;-82
2023/03/25 11:50:51;;;;;;;5.32;1.52;;;9.00;95.70;;;;;;5043128;28;20033;-76
2023/03/25 11:53:19;;;;;;;6.97;1.98;;;8.90;94.60;;;;;;5040568;28;20354;-78
2023/03/25 11:55:48;;;;;;;6.38;1.80;;;8.90;95.10;;;;;;5038417;28;20051;-77
2023/03/25 11:58:21;;;;;;;3.97;1.35;;;9.00;95.10;;;;;;5027204;28;20131;-80
2023/03/25 12:00:52;;;;;;;6.05;1.52;;;9.10;95.40;;;;;;5040988;28;20467;-82
2023/03/25 12:03:21;;;;;;;6.63;1.92;;;9.00;95.00;;;;;;5044987;28;20109;-85
2023/03/25 12:06:15;;;;;;;9.63;1.90;;;8.90;94.20;;;;;;5044344;28;20036;-84
2023/03/25 12:08:57;;;;;;;7.05;2.67;;;8.90;95.20;;;;;;5046760;28;20059;-89
2023/03/25 12:11:34;;;;;;;5.93;2.17;;;8.80;95.30;;;;;;5042410;28;20053;-82
2023/03/25 12:14:23;;;;;;;3.97;1.70;;;8.70;95.20;;;;;;5038306;28;20242;-81
2023/03/25 12:17:33;;;;;;;3.85;1.92;;;8.70;95.40;;;;;;5035450;28;20292;-80
2023/03/25 12:20:12;;;;;;;9.68;1.98;;;8.80;95.50;;;;;;5028439;28;20052;-83
2023/03/25 12:23:12;;;;;;;6.78;1.80;;;8.70;95.30;;;;;;5043773;28;20370;-81
2023/03/25 12:26:05;;;;;;;8.07;2.22;;;8.60;95.70;;;;;;5042173;28;20316;-81
2023/03/25 12:28:43;;;;;;;4.70;1.92;;;8.60;96.10;;;;;;5024876;28;20052;-83
2023/03/25 12:31:46;;;;;;;7.93;2.38;;;8.50;96.20;;;;;;5040974;28;20185;-78
2023/03/25 12:34:33;;;;;;;7.78;2.25;;;8.60;96.20;;;;;;5024019;28;20346;-79
2023/03/25 12:37:17;;;;;;;9.30;2.75;;;8.70;96.10;;;;;;5040029;28;20176;-81
2023/03/25 12:39:55;;;;;;;7.63;2.35;;;8.60;96.10;;;;;;5044031;28;20037;-83
2023/03/25 12:42:37;;;;;;;9.48;2.83;;;8.60;96.50;;;;;;5039632;28;20028;-82
2023/03/25 12:45:28;;;;;;;7.47;2.88;;;8.60;96.60;;;;;;5030544;28;20029;-81
2023/03/25 12:48:03;;;;;;;6.25;2.90;;;8.60;96.90;;;;;;5047065;28;20131;-79
2023/03/25 12:50:50;;;;;;;8.43;2.60;;;8.60;96.90;;;;;;5039872;28;20049;-78
2023/03/25 12:53:40;;;;;;;6.22;2.65;;;8.50;96.50;;;;;;5037523;28;20114;-85
2023/03/25 12:56:19;;;;;;;13.32;3.50;;;8.50;96.80;;;;;;5050960;28;20033;-84
2023/03/25 12:59:10;;;;;;;12.23;2.75;;;8.60;96.80;;;;;;5044197;28;20025;-86
2023/03/25 13:01:51;;;;;;;8.30;3.10;;;8.80;96.90;;;;;;5025773;28;20038;-82
2023/03/25 13:04:42;;;;;;;7.90;3.10;;;9.30;97.20;;;;;;5041137;28;20120;-82
2023/03/25 13:07:13;;;;;;;9.50;2.90;;;9.90;95.40;;;;;;5037983;28;20395;-80
2023/03/25 13:10:11;;;;;;;13.10;3.30;;;10.00;95.10;;;;;;5046382;28;20032;-83
2023/03/25 13:12:46;;;;;;;5.88;1.90;;;9.80;94.30;;;;;;5042296;28;20376;-84
2023/03/25 13:15:23;;;;;;;4.75;1.48;;;9.60;93.80;;;;;;5038148;28;20137;-82
2023/03/25 13:18:00;;;;;;;4.18;1.48;;;9.70;93.00;;;;;;5038412;28;20139;-82
2023/03/25 13:20:30;;;;;;;6.72;1.90;;;9.70;91.90;;;;;;5040630;28;20025;-84
2023/03/25 13:23:00;;;;;;;6.00;1.50;;;10.40;91.40;;;;;;5042077;28;20021;-80
2023/03/25 13:25:41;;;;;;;7.85;1.40;;;10.90;90.10;;;;;;5046344;28;20021;-80
2023/03/25 13:28:14;;;;;;;6.82;1.33;;;10.70;89.30;;;;;;5039213;28;20111;-82